sensor_id;sensor_type;location;lat;lon;timestamp;P1;durP1;ratioP1;P2;durP2;ratioP2
51248;SDS011;39642;47.556;18.728;2022-08-30T00:00:05;9.00;;;3.78;;
51248;SDS011;39642;47.556;18.728;2022-08-30T00:02:52;9.88;;;3.47;;
51248;SDS011;39642;47.556;18.728;2022-08-30T00:05:18;9.35;;;3.65;;
51248;SDS011;39642;47.556;18.728;2022-08-30T00:07:44;9.82;;;3.60;;
51248;SDS011;39642;47.556;18.728;2022-08-30T00:10:09;9.13;;;3.70;;
51248;SDS011;39642;47.556;18.728;2022-08-30T00:12:35;10.23;;;3.40;;
51248;SDS011;39642;47.556;18.728;2022-08-30T00:15:02;11.07;;;3.75;;
51248;SDS011;39642;47.556;18.728;2022-08-30T00:17:30;10.15;;;3.75;;
51248;SDS011;39642;47.556;18.728;2022-08-30T00:19:56;10.35;;;3.72;;
51248;SDS011;39642;47.556;18.728;2022-08-30T00:22:22;11.20;;;3.90;;
51248;SDS011;39642;47.556;18.728;2022-08-30T00:24:48;10.32;;;4.07;;
51248;SDS011;39642;47.556;18.728;2022-08-30T00:27:14;9.48;;;3.62;;
51248;SDS011;39642;47.556;18.728;2022-08-30T00:29:40;11.02;;;4.00;;
51248;SDS011;39642;47.556;18.728;2022-08-30T00:32:06;11.82;;;3.92;;
51248;SDS011;39642;47.556;18.728;2022-08-30T00:34:32;10.05;;;3.70;;
51248;SDS011;39642;47.556;18.728;2022-08-30T00:36:59;11.15;;;3.90;;
51248;SDS011;39642;47.556;18.728;2022-08-30T00:39:25;10.73;;;3.65;;
51248;SDS011;39642;47.556;18.728;2022-08-30T00:41:51;9.30;;;3.40;;
51248;SDS011;39642;47.556;18.728;2022-08-30T00:44:17;10.30;;;3.90;;
51248;SDS011;39642;47.556;18.728;2022-08-30T00:46:43;10.63;;;3.87;;
51248;SDS011;39642;47.556;18.728;2022-08-30T00:49:09;9.65;;;3.78;;
51248;SDS011;39642;47.556;18.728;2022-08-30T00:51:38;10.65;;;3.65;;
51248;SDS011;39642;47.556;18.728;2022-08-30T00:54:05;11.80;;;4.00;;
51248;SDS011;39642;47.556;18.728;2022-08-30T00:56:32;9.75;;;3.87;;
51248;SDS011;39642;47.556;18.728;2022-08-30T00:58:59;9.85;;;3.70;;
51248;SDS011;39642;47.556;18.728;2022-08-30T01:01:28;10.05;;;3.60;;
51248;SDS011;39642;47.556;18.728;2022-08-30T01:03:56;8.90;;;3.53;;
51248;SDS011;39642;47.556;18.728;2022-08-30T01:06:23;11.55;;;4.00;;
51248;SDS011;39642;47.556;18.728;2022-08-30T01:08:50;12.65;;;4.03;;
51248;SDS011;39642;47.556;18.728;2022-08-30T01:11:17;9.40;;;3.50;;
51248;SDS011;39642;47.556;18.728;2022-08-30T01:13:46;9.48;;;3.80;;
51248;SDS011;39642;47.556;18.728;2022-08-30T01:16:13;9.15;;;3.72;;
51248;SDS011;39642;47.556;18.728;2022-08-30T01:18:40;9.20;;;3.75;;
51248;SDS011;39642;47.556;18.728;2022-08-30T01:23:32;9.93;;;3.80;;
51248;SDS011;39642;47.556;18.728;2022-08-30T01:26:01;10.30;;;3.87;;
51248;SDS011;39642;47.556;18.728;2022-08-30T01:28:28;10.57;;;4.10;;
51248;SDS011;39642;47.556;18.728;2022-08-30T01:30:55;9.75;;;3.83;;
51248;SDS011;39642;47.556;18.728;2022-08-30T01:33:21;11.30;;;3.90;;
51248;SDS011;39642;47.556;18.728;2022-08-30T01:38:22;10.48;;;4.07;;
51248;SDS011;39642;47.556;18.728;2022-08-30T01:40:55;9.57;;;3.75;;
51248;SDS011;39642;47.556;18.728;2022-08-30T01:43:25;9.35;;;3.60;;
51248;SDS011;39642;47.556;18.728;2022-08-30T01:45:52;11.00;;;3.85;;
51248;SDS011;39642;47.556;18.728;2022-08-30T01:48:17;9.00;;;3.70;;
51248;SDS011;39642;47.556;18.728;2022-08-30T01:50:43;9.90;;;3.87;;
51248;SDS011;39642;47.556;18.728;2022-08-30T01:53:09;10.82;;;4.05;;
51248;SDS011;39642;47.556;18.728;2022-08-30T01:55:35;9.95;;;3.95;;
51248;SDS011;39642;47.556;18.728;2022-08-30T01:58:03;9.38;;;3.55;;
51248;SDS011;39642;47.556;18.728;2022-08-30T02:00:29;10.32;;;4.20;;
51248;SDS011;39642;47.556;18.728;2022-08-30T02:02:55;10.13;;;3.60;;
51248;SDS011;39642;47.556;18.728;2022-08-30T02:05:21;10.27;;;4.10;;
51248;SDS011;39642;47.556;18.728;2022-08-30T02:07:47;10.48;;;4.03;;
51248;SDS011;39642;47.556;18.728;2022-08-30T02:10:13;9.98;;;4.07;;
51248;SDS011;39642;47.556;18.728;2022-08-30T02:12:39;12.02;;;3.78;;
51248;SDS011;39642;47.556;18.728;2022-08-30T02:15:06;9.70;;;3.83;;
51248;SDS011;39642;47.556;18.728;2022-08-30T02:17:33;9.50;;;3.97;;
51248;SDS011;39642;47.556;18.728;2022-08-30T02:19:59;10.20;;;3.75;;
51248;SDS011;39642;47.556;18.728;2022-08-30T02:22:25;10.38;;;4.25;;
51248;SDS011;39642;47.556;18.728;2022-08-30T02:24:50;10.77;;;4.15;;
51248;SDS011;39642;47.556;18.728;2022-08-30T02:27:16;10.52;;;4.05;;
51248;SDS011;39642;47.556;18.728;2022-08-30T02:29:42;9.55;;;3.90;;
51248;SDS011;39642;47.556;18.728;2022-08-30T02:32:08;10.27;;;3.67;;
51248;SDS011;39642;47.556;18.728;2022-08-30T02:34:34;11.35;;;4.43;;
51248;SDS011;39642;47.556;18.728;2022-08-30T02:37:00;9.65;;;4.10;;
51248;SDS011;39642;47.556;18.728;2022-08-30T02:39:26;10.65;;;4.22;;
51248;SDS011;39642;47.556;18.728;2022-08-30T02:41:52;11.20;;;3.92;;
51248;SDS011;39642;47.556;18.728;2022-08-30T02:44:18;10.82;;;4.32;;
51248;SDS011;39642;47.556;18.728;2022-08-30T02:46:44;9.70;;;3.95;;
51248;SDS011;39642;47.556;18.728;2022-08-30T02:49:10;11.30;;;3.67;;
51248;SDS011;39642;47.556;18.728;2022-08-30T02:51:36;10.45;;;3.85;;
51248;SDS011;39642;47.556;18.728;2022-08-30T02:54:02;11.15;;;3.78;;
51248;SDS011;39642;47.556;18.728;2022-08-30T02:56:28;10.10;;;4.00;;
51248;SDS011;39642;47.556;18.728;2022-08-30T02:58:54;10.77;;;3.90;;
51248;SDS011;39642;47.556;18.728;2022-08-30T03:01:20;10.05;;;3.72;;
51248;SDS011;39642;47.556;18.728;2022-08-30T03:03:45;11.18;;;3.78;;
51248;SDS011;39642;47.556;18.728;2022-08-30T03:06:12;10.98;;;3.90;;
51248;SDS011;39642;47.556;18.728;2022-08-30T03:08:38;9.80;;;4.10;;
51248;SDS011;39642;47.556;18.728;2022-08-30T03:11:05;9.88;;;3.87;;
51248;SDS011;39642;47.556;18.728;2022-08-30T03:13:31;9.57;;;3.90;;
51248;SDS011;39642;47.556;18.728;2022-08-30T03:15:57;9.75;;;3.90;;
51248;SDS011;39642;47.556;18.728;2022-08-30T03:18:23;10.15;;;4.12;;
51248;SDS011;39642;47.556;18.728;2022-08-30T03:20:49;10.60;;;3.95;;
51248;SDS011;39642;47.556;18.728;2022-08-30T03:23:15;9.80;;;4.18;;
51248;SDS011;39642;47.556;18.728;2022-08-30T03:25:42;10.25;;;3.83;;
51248;SDS011;39642;47.556;18.728;2022-08-30T03:28:08;9.77;;;3.70;;
51248;SDS011;39642;47.556;18.728;2022-08-30T03:30:33;9.70;;;3.87;;
51248;SDS011;39642;47.556;18.728;2022-08-30T03:33:00;11.00;;;3.80;;
51248;SDS011;39642;47.556;18.728;2022-08-30T03:35:26;9.40;;;3.90;;
51248;SDS011;39642;47.556;18.728;2022-08-30T03:37:52;10.65;;;3.78;;
51248;SDS011;39642;47.556;18.728;2022-08-30T03:40:19;11.02;;;4.07;;
51248;SDS011;39642;47.556;18.728;2022-08-30T03:42:46;9.30;;;3.70;;
51248;SDS011;39642;47.556;18.728;2022-08-30T03:45:14;10.63;;;3.90;;
51248;SDS011;39642;47.556;18.728;2022-08-30T03:47:42;10.18;;;4.03;;
51248;SDS011;39642;47.556;18.728;2022-08-30T03:50:08;11.35;;;3.97;;
51248;SDS011;39642;47.556;18.728;2022-08-30T03:52:35;12.00;;;4.12;;
51248;SDS011;39642;47.556;18.728;2022-08-30T03:55:01;11.65;;;3.97;;
51248;SDS011;39642;47.556;18.728;2022-08-30T03:57:27;10.18;;;4.30;;
51248;SDS011;39642;47.556;18.728;2022-08-30T03:59:53;10.18;;;4.10;;
51248;SDS011;39642;47.556;18.728;2022-08-30T04:02:19;11.32;;;4.20;;
51248;SDS011;39642;47.556;18.728;2022-08-30T04:04:45;11.85;;;4.30;;
51248;SDS011;39642;47.556;18.728;2022-08-30T04:07:11;12.80;;;4.30;;
51248;SDS011;39642;47.556;18.728;2022-08-30T04:09:37;10.73;;;4.12;;
51248;SDS011;39642;47.556;18.728;2022-08-30T04:12:03;9.95;;;4.12;;
51248;SDS011;39642;47.556;18.728;2022-08-30T04:14:29;9.18;;;4.05;;
51248;SDS011;39642;47.556;18.728;2022-08-30T04:16:55;12.88;;;4.37;;
51248;SDS011;39642;47.556;18.728;2022-08-30T04:19:22;11.75;;;4.10;;
51248;SDS011;39642;47.556;18.728;2022-08-30T04:21:49;11.07;;;4.07;;
51248;SDS011;39642;47.556;18.728;2022-08-30T04:24:15;11.60;;;4.18;;
51248;SDS011;39642;47.556;18.728;2022-08-30T04:26:41;9.38;;;3.92;;
51248;SDS011;39642;47.556;18.728;2022-08-30T04:29:07;10.90;;;4.82;;
51248;SDS011;39642;47.556;18.728;2022-08-30T04:31:36;11.02;;;4.28;;
51248;SDS011;39642;47.556;18.728;2022-08-30T04:34:02;12.10;;;4.60;;
51248;SDS011;39642;47.556;18.728;2022-08-30T04:36:28;11.20;;;4.50;;
51248;SDS011;39642;47.556;18.728;2022-08-30T04:38:54;11.12;;;4.20;;
51248;SDS011;39642;47.556;18.728;2022-08-30T04:41:20;12.60;;;4.53;;
51248;SDS011;39642;47.556;18.728;2022-08-30T04:43:49;10.95;;;4.53;;
51248;SDS011;39642;47.556;18.728;2022-08-30T04:46:15;11.00;;;4.55;;
51248;SDS011;39642;47.556;18.728;2022-08-30T04:48:43;10.63;;;4.05;;
51248;SDS011;39642;47.556;18.728;2022-08-30T04:51:11;11.07;;;4.32;;
51248;SDS011;39642;47.556;18.728;2022-08-30T04:53:43;10.90;;;4.47;;
51248;SDS011;39642;47.556;18.728;2022-08-30T04:56:10;10.05;;;4.00;;
51248;SDS011;39642;47.556;18.728;2022-08-30T04:58:44;11.25;;;4.25;;
51248;SDS011;39642;47.556;18.728;2022-08-30T05:01:15;10.52;;;4.12;;
51248;SDS011;39642;47.556;18.728;2022-08-30T05:03:43;12.52;;;4.28;;
51248;SDS011;39642;47.556;18.728;2022-08-30T05:06:10;11.40;;;4.55;;
51248;SDS011;39642;47.556;18.728;2022-08-30T05:08:36;12.68;;;4.35;;
51248;SDS011;39642;47.556;18.728;2022-08-30T05:11:03;10.93;;;4.10;;
51248;SDS011;39642;47.556;18.728;2022-08-30T05:13:31;12.13;;;4.43;;
51248;SDS011;39642;47.556;18.728;2022-08-30T05:15:58;13.43;;;4.57;;
51248;SDS011;39642;47.556;18.728;2022-08-30T05:18:25;12.80;;;4.07;;
51248;SDS011;39642;47.556;18.728;2022-08-30T05:21:11;12.98;;;4.22;;
51248;SDS011;39642;47.556;18.728;2022-08-30T05:23:39;12.60;;;4.20;;
51248;SDS011;39642;47.556;18.728;2022-08-30T05:26:08;10.70;;;4.15;;
51248;SDS011;39642;47.556;18.728;2022-08-30T05:28:36;10.57;;;4.22;;
51248;SDS011;39642;47.556;18.728;2022-08-30T05:31:07;11.10;;;4.10;;
51248;SDS011;39642;47.556;18.728;2022-08-30T05:33:41;10.73;;;4.40;;
51248;SDS011;39642;47.556;18.728;2022-08-30T05:36:08;10.27;;;3.97;;
51248;SDS011;39642;47.556;18.728;2022-08-30T05:38:36;11.65;;;4.00;;
51248;SDS011;39642;47.556;18.728;2022-08-30T05:41:02;12.18;;;3.95;;
51248;SDS011;39642;47.556;18.728;2022-08-30T05:43:28;11.15;;;4.50;;
51248;SDS011;39642;47.556;18.728;2022-08-30T05:46:02;10.65;;;3.87;;
51248;SDS011;39642;47.556;18.728;2022-08-30T05:48:31;11.73;;;4.00;;
51248;SDS011;39642;47.556;18.728;2022-08-30T05:51:04;11.68;;;4.30;;
51248;SDS011;39642;47.556;18.728;2022-08-30T05:53:37;12.02;;;3.87;;
51248;SDS011;39642;47.556;18.728;2022-08-30T05:56:05;10.10;;;4.20;;
51248;SDS011;39642;47.556;18.728;2022-08-30T05:58:33;10.73;;;3.92;;
51248;SDS011;39642;47.556;18.728;2022-08-30T06:00:59;12.00;;;4.00;;
51248;SDS011;39642;47.556;18.728;2022-08-30T06:03:26;10.68;;;4.03;;
51248;SDS011;39642;47.556;18.728;2022-08-30T06:05:52;12.32;;;4.03;;
51248;SDS011;39642;47.556;18.728;2022-08-30T06:08:18;11.07;;;3.92;;
51248;SDS011;39642;47.556;18.728;2022-08-30T06:10:45;9.45;;;3.80;;
51248;SDS011;39642;47.556;18.728;2022-08-30T06:13:11;11.43;;;3.97;;
51248;SDS011;39642;47.556;18.728;2022-08-30T06:15:38;12.60;;;4.18;;
51248;SDS011;39642;47.556;18.728;2022-08-30T06:18:04;12.05;;;4.45;;
51248;SDS011;39642;47.556;18.728;2022-08-30T06:20:31;12.25;;;4.53;;
51248;SDS011;39642;47.556;18.728;2022-08-30T06:22:57;10.77;;;4.25;;
51248;SDS011;39642;47.556;18.728;2022-08-30T06:25:22;14.05;;;4.47;;
51248;SDS011;39642;47.556;18.728;2022-08-30T06:27:48;10.65;;;4.20;;
51248;SDS011;39642;47.556;18.728;2022-08-30T06:30:14;10.82;;;4.10;;
51248;SDS011;39642;47.556;18.728;2022-08-30T06:32:40;13.00;;;4.50;;
51248;SDS011;39642;47.556;18.728;2022-08-30T06:35:06;11.18;;;4.32;;
51248;SDS011;39642;47.556;18.728;2022-08-30T06:37:33;11.98;;;4.18;;
51248;SDS011;39642;47.556;18.728;2022-08-30T06:39:59;10.38;;;4.07;;
51248;SDS011;39642;47.556;18.728;2022-08-30T06:42:30;11.68;;;4.47;;
51248;SDS011;39642;47.556;18.728;2022-08-30T06:44:58;16.73;;;4.72;;
51248;SDS011;39642;47.556;18.728;2022-08-30T06:47:26;13.62;;;4.65;;
51248;SDS011;39642;47.556;18.728;2022-08-30T06:49:52;13.88;;;4.62;;
51248;SDS011;39642;47.556;18.728;2022-08-30T06:52:18;14.05;;;4.93;;
51248;SDS011;39642;47.556;18.728;2022-08-30T06:54:44;12.85;;;4.95;;
51248;SDS011;39642;47.556;18.728;2022-08-30T06:57:10;12.68;;;4.50;;
51248;SDS011;39642;47.556;18.728;2022-08-30T06:59:37;13.05;;;5.00;;
51248;SDS011;39642;47.556;18.728;2022-08-30T07:02:04;12.80;;;4.95;;
51248;SDS011;39642;47.556;18.728;2022-08-30T07:04:31;11.60;;;4.95;;
51248;SDS011;39642;47.556;18.728;2022-08-30T07:06:57;13.20;;;4.57;;
51248;SDS011;39642;47.556;18.728;2022-08-30T07:09:23;12.52;;;4.60;;
51248;SDS011;39642;47.556;18.728;2022-08-30T07:11:50;10.23;;;4.35;;
51248;SDS011;39642;47.556;18.728;2022-08-30T07:14:16;9.75;;;4.22;;
51248;SDS011;39642;47.556;18.728;2022-08-30T07:16:43;13.23;;;4.85;;
51248;SDS011;39642;47.556;18.728;2022-08-30T07:19:10;13.35;;;4.20;;
51248;SDS011;39642;47.556;18.728;2022-08-30T07:21:37;17.12;;;4.50;;
51248;SDS011;39642;47.556;18.728;2022-08-30T07:24:08;16.05;;;4.70;;
51248;SDS011;39642;47.556;18.728;2022-08-30T07:26:36;10.48;;;4.50;;
51248;SDS011;39642;47.556;18.728;2022-08-30T07:29:04;11.82;;;4.40;;
51248;SDS011;39642;47.556;18.728;2022-08-30T07:31:30;14.00;;;5.00;;
51248;SDS011;39642;47.556;18.728;2022-08-30T07:33:58;11.50;;;5.37;;
51248;SDS011;39642;47.556;18.728;2022-08-30T07:36:24;13.90;;;5.37;;
51248;SDS011;39642;47.556;18.728;2022-08-30T07:38:50;12.07;;;4.70;;
51248;SDS011;39642;47.556;18.728;2022-08-30T07:41:18;13.98;;;5.05;;
51248;SDS011;39642;47.556;18.728;2022-08-30T07:43:54;12.05;;;5.57;;
51248;SDS011;39642;47.556;18.728;2022-08-30T07:46:21;15.43;;;5.65;;
51248;SDS011;39642;47.556;18.728;2022-08-30T07:48:48;11.82;;;4.82;;
51248;SDS011;39642;47.556;18.728;2022-08-30T07:51:16;14.38;;;4.87;;
51248;SDS011;39642;47.556;18.728;2022-08-30T07:53:44;11.77;;;4.57;;
51248;SDS011;39642;47.556;18.728;2022-08-30T07:56:11;12.57;;;5.15;;
51248;SDS011;39642;47.556;18.728;2022-08-30T07:58:37;14.25;;;5.70;;
51248;SDS011;39642;47.556;18.728;2022-08-30T08:01:05;13.32;;;5.25;;
51248;SDS011;39642;47.556;18.728;2022-08-30T08:03:32;13.32;;;5.05;;
51248;SDS011;39642;47.556;18.728;2022-08-30T08:06:00;13.77;;;5.40;;
51248;SDS011;39642;47.556;18.728;2022-08-30T08:08:30;13.15;;;5.30;;
51248;SDS011;39642;47.556;18.728;2022-08-30T08:10:56;11.60;;;4.85;;
51248;SDS011;39642;47.556;18.728;2022-08-30T08:13:22;13.85;;;5.45;;
51248;SDS011;39642;47.556;18.728;2022-08-30T08:15:49;12.32;;;5.60;;
51248;SDS011;39642;47.556;18.728;2022-08-30T08:18:15;15.63;;;6.12;;
51248;SDS011;39642;47.556;18.728;2022-08-30T08:20:41;13.07;;;5.57;;
51248;SDS011;39642;47.556;18.728;2022-08-30T08:23:07;13.43;;;5.93;;
51248;SDS011;39642;47.556;18.728;2022-08-30T08:25:36;13.32;;;5.03;;
51248;SDS011;39642;47.556;18.728;2022-08-30T08:28:03;14.80;;;5.30;;
51248;SDS011;39642;47.556;18.728;2022-08-30T08:30:31;13.38;;;5.25;;
51248;SDS011;39642;47.556;18.728;2022-08-30T08:32:59;17.37;;;5.60;;
51248;SDS011;39642;47.556;18.728;2022-08-30T08:35:25;16.55;;;5.50;;
51248;SDS011;39642;47.556;18.728;2022-08-30T08:37:51;16.73;;;5.45;;
51248;SDS011;39642;47.556;18.728;2022-08-30T08:40:17;23.30;;;6.25;;
51248;SDS011;39642;47.556;18.728;2022-08-30T08:42:54;13.68;;;4.85;;
51248;SDS011;39642;47.556;18.728;2022-08-30T08:45:31;13.48;;;5.95;;
51248;SDS011;39642;47.556;18.728;2022-08-30T08:50:56;13.05;;;5.10;;
51248;SDS011;39642;47.556;18.728;2022-08-30T08:53:42;11.95;;;4.87;;
51248;SDS011;39642;47.556;18.728;2022-08-30T08:56:13;10.65;;;4.50;;
51248;SDS011;39642;47.556;18.728;2022-08-30T08:58:45;11.12;;;4.37;;
51248;SDS011;39642;47.556;18.728;2022-08-30T09:01:17;16.45;;;5.00;;
51248;SDS011;39642;47.556;18.728;2022-08-30T09:03:46;12.50;;;5.35;;
51248;SDS011;39642;47.556;18.728;2022-08-30T09:08:50;14.00;;;5.55;;
51248;SDS011;39642;47.556;18.728;2022-08-30T09:11:20;15.48;;;5.15;;
51248;SDS011;39642;47.556;18.728;2022-08-30T09:13:50;12.50;;;4.80;;
51248;SDS011;39642;47.556;18.728;2022-08-30T09:24:58;14.87;;;4.78;;
51248;SDS011;39642;47.556;18.728;2022-08-30T09:32:51;17.48;;;5.47;;
51248;SDS011;39642;47.556;18.728;2022-08-30T09:35:18;12.90;;;5.10;;
51248;SDS011;39642;47.556;18.728;2022-08-30T09:37:57;13.73;;;5.05;;
51248;SDS011;39642;47.556;18.728;2022-08-30T09:40:40;14.27;;;5.18;;
51248;SDS011;39642;47.556;18.728;2022-08-30T09:43:09;13.52;;;5.25;;
51248;SDS011;39642;47.556;18.728;2022-08-30T09:53:33;14.10;;;5.28;;
51248;SDS011;39642;47.556;18.728;2022-08-30T09:56:06;12.10;;;5.28;;
51248;SDS011;39642;47.556;18.728;2022-08-30T10:01:31;14.48;;;5.65;;
51248;SDS011;39642;47.556;18.728;2022-08-30T10:04:18;12.80;;;5.95;;
51248;SDS011;39642;47.556;18.728;2022-08-30T10:06:55;14.73;;;5.82;;
51248;SDS011;39642;47.556;18.728;2022-08-30T10:09:47;18.70;;;6.30;;
51248;SDS011;39642;47.556;18.728;2022-08-30T10:12:36;12.35;;;5.10;;
51248;SDS011;39642;47.556;18.728;2022-08-30T10:15:25;12.45;;;5.45;;
51248;SDS011;39642;47.556;18.728;2022-08-30T10:20:55;13.88;;;5.50;;
51248;SDS011;39642;47.556;18.728;2022-08-30T10:23:39;12.60;;;5.55;;
51248;SDS011;39642;47.556;18.728;2022-08-30T10:26:15;12.15;;;5.00;;
51248;SDS011;39642;47.556;18.728;2022-08-30T10:31:38;13.82;;;5.50;;
51248;SDS011;39642;47.556;18.728;2022-08-30T10:34:09;12.00;;;5.20;;
51248;SDS011;39642;47.556;18.728;2022-08-30T10:36:43;13.45;;;5.32;;
51248;SDS011;39642;47.556;18.728;2022-08-30T10:39:16;12.75;;;5.28;;
51248;SDS011;39642;47.556;18.728;2022-08-30T10:41:52;12.00;;;5.05;;
51248;SDS011;39642;47.556;18.728;2022-08-30T10:44:28;14.02;;;5.47;;
51248;SDS011;39642;47.556;18.728;2022-08-30T10:47:08;11.30;;;4.97;;
51248;SDS011;39642;47.556;18.728;2022-08-30T10:49:45;11.75;;;5.22;;
51248;SDS011;39642;47.556;18.728;2022-08-30T10:55:18;13.02;;;5.35;;
51248;SDS011;39642;47.556;18.728;2022-08-30T10:57:49;12.60;;;5.43;;
51248;SDS011;39642;47.556;18.728;2022-08-30T11:06:08;11.88;;;5.07;;
51248;SDS011;39642;47.556;18.728;2022-08-30T11:08:44;11.52;;;5.05;;
51248;SDS011;39642;47.556;18.728;2022-08-30T11:13:55;12.88;;;5.18;;
51248;SDS011;39642;47.556;18.728;2022-08-30T11:16:32;12.07;;;5.32;;
51248;SDS011;39642;47.556;18.728;2022-08-30T11:19:01;12.15;;;4.93;;
51248;SDS011;39642;47.556;18.728;2022-08-30T11:21:39;13.07;;;5.05;;
51248;SDS011;39642;47.556;18.728;2022-08-30T11:26:59;12.18;;;5.18;;
51248;SDS011;39642;47.556;18.728;2022-08-30T11:31:56;14.05;;;5.35;;
51248;SDS011;39642;47.556;18.728;2022-08-30T11:40:08;13.55;;;5.28;;
51248;SDS011;39642;47.556;18.728;2022-08-30T11:42:55;11.12;;;4.65;;
51248;SDS011;39642;47.556;18.728;2022-08-30T11:48:06;12.88;;;4.50;;
51248;SDS011;39642;47.556;18.728;2022-08-30T11:50:53;15.95;;;5.12;;
51248;SDS011;39642;47.556;18.728;2022-08-30T11:53:32;12.90;;;5.47;;
51248;SDS011;39642;47.556;18.728;2022-08-30T11:56:19;14.20;;;5.78;;
51248;SDS011;39642;47.556;18.728;2022-08-30T12:01:44;12.10;;;5.03;;
51248;SDS011;39642;47.556;18.728;2022-08-30T12:06:47;12.40;;;4.95;;
51248;SDS011;39642;47.556;18.728;2022-08-30T12:11:52;16.12;;;5.60;;
51248;SDS011;39642;47.556;18.728;2022-08-30T12:14:46;12.90;;;5.10;;
51248;SDS011;39642;47.556;18.728;2022-08-30T12:20:12;11.18;;;4.80;;
51248;SDS011;39642;47.556;18.728;2022-08-30T12:23:12;12.60;;;5.28;;
51248;SDS011;39642;47.556;18.728;2022-08-30T12:25:43;11.38;;;5.00;;
51248;SDS011;39642;47.556;18.728;2022-08-30T12:28:11;13.40;;;4.87;;
51248;SDS011;39642;47.556;18.728;2022-08-30T12:30:37;12.85;;;4.70;;
51248;SDS011;39642;47.556;18.728;2022-08-30T12:33:04;12.85;;;4.70;;
51248;SDS011;39642;47.556;18.728;2022-08-30T12:35:34;13.05;;;4.93;;
51248;SDS011;39642;47.556;18.728;2022-08-30T12:38:01;13.32;;;4.70;;
51248;SDS011;39642;47.556;18.728;2022-08-30T12:40:30;12.20;;;4.87;;
51248;SDS011;39642;47.556;18.728;2022-08-30T12:43:15;10.68;;;4.30;;
51248;SDS011;39642;47.556;18.728;2022-08-30T12:45:49;11.25;;;4.70;;
51248;SDS011;39642;47.556;18.728;2022-08-30T12:48:17;10.95;;;4.72;;
51248;SDS011;39642;47.556;18.728;2022-08-30T12:50:46;11.85;;;4.75;;
51248;SDS011;39642;47.556;18.728;2022-08-30T12:53:26;13.25;;;5.07;;
51248;SDS011;39642;47.556;18.728;2022-08-30T12:56:06;13.13;;;4.97;;
51248;SDS011;39642;47.556;18.728;2022-08-30T13:01:13;11.93;;;4.93;;
51248;SDS011;39642;47.556;18.728;2022-08-30T13:03:51;10.82;;;4.65;;
51248;SDS011;39642;47.556;18.728;2022-08-30T13:11:51;13.80;;;5.12;;
51248;SDS011;39642;47.556;18.728;2022-08-30T13:22:01;12.10;;;5.12;;
51248;SDS011;39642;47.556;18.728;2022-08-30T13:24:28;11.50;;;4.30;;
51248;SDS011;39642;47.556;18.728;2022-08-30T13:26:55;12.43;;;5.10;;
51248;SDS011;39642;47.556;18.728;2022-08-30T13:29:26;12.60;;;4.93;;
51248;SDS011;39642;47.556;18.728;2022-08-30T13:31:54;14.32;;;4.90;;
51248;SDS011;39642;47.556;18.728;2022-08-30T13:34:20;10.02;;;4.43;;
51248;SDS011;39642;47.556;18.728;2022-08-30T13:36:49;11.85;;;4.80;;
51248;SDS011;39642;47.556;18.728;2022-08-30T13:39:18;11.25;;;5.00;;
51248;SDS011;39642;47.556;18.728;2022-08-30T13:41:43;11.93;;;4.93;;
51248;SDS011;39642;47.556;18.728;2022-08-30T13:44:09;11.07;;;4.70;;
51248;SDS011;39642;47.556;18.728;2022-08-30T13:46:35;11.38;;;5.00;;
51248;SDS011;39642;47.556;18.728;2022-08-30T13:49:06;11.48;;;4.72;;
51248;SDS011;39642;47.556;18.728;2022-08-30T13:51:34;10.65;;;4.90;;
51248;SDS011;39642;47.556;18.728;2022-08-30T13:53:59;10.85;;;4.75;;
51248;SDS011;39642;47.556;18.728;2022-08-30T13:56:26;12.25;;;4.57;;
51248;SDS011;39642;47.556;18.728;2022-08-30T13:58:57;11.90;;;5.03;;
51248;SDS011;39642;47.556;18.728;2022-08-30T14:01:23;11.55;;;4.93;;
51248;SDS011;39642;47.556;18.728;2022-08-30T14:03:49;10.38;;;4.45;;
51248;SDS011;39642;47.556;18.728;2022-08-30T14:06:15;11.82;;;5.10;;
51248;SDS011;39642;47.556;18.728;2022-08-30T14:08:41;11.45;;;4.82;;
51248;SDS011;39642;47.556;18.728;2022-08-30T14:11:07;11.60;;;4.90;;
51248;SDS011;39642;47.556;18.728;2022-08-30T14:13:36;11.20;;;4.85;;
51248;SDS011;39642;47.556;18.728;2022-08-30T14:16:04;10.60;;;4.53;;
51248;SDS011;39642;47.556;18.728;2022-08-30T14:18:32;14.90;;;4.72;;
51248;SDS011;39642;47.556;18.728;2022-08-30T14:20:58;10.63;;;4.55;;
51248;SDS011;39642;47.556;18.728;2022-08-30T14:23:24;12.88;;;4.82;;
51248;SDS011;39642;47.556;18.728;2022-08-30T14:25:51;10.57;;;4.25;;
51248;SDS011;39642;47.556;18.728;2022-08-30T14:28:18;13.75;;;4.60;;
51248;SDS011;39642;47.556;18.728;2022-08-30T14:30:45;13.80;;;4.62;;
51248;SDS011;39642;47.556;18.728;2022-08-30T14:33:12;9.95;;;4.28;;
51248;SDS011;39642;47.556;18.728;2022-08-30T14:35:38;11.68;;;4.60;;
51248;SDS011;39642;47.556;18.728;2022-08-30T14:38:04;12.95;;;4.80;;
51248;SDS011;39642;47.556;18.728;2022-08-30T14:40:30;11.18;;;4.82;;
51248;SDS011;39642;47.556;18.728;2022-08-30T14:42:56;11.25;;;4.37;;
51248;SDS011;39642;47.556;18.728;2022-08-30T14:45:22;10.52;;;4.35;;
51248;SDS011;39642;47.556;18.728;2022-08-30T14:47:48;11.30;;;4.45;;
51248;SDS011;39642;47.556;18.728;2022-08-30T14:50:14;10.43;;;4.40;;
51248;SDS011;39642;47.556;18.728;2022-08-30T14:52:40;10.63;;;4.40;;
51248;SDS011;39642;47.556;18.728;2022-08-30T14:55:08;9.77;;;4.30;;
51248;SDS011;39642;47.556;18.728;2022-08-30T14:57:36;10.20;;;4.32;;
51248;SDS011;39642;47.556;18.728;2022-08-30T15:00:04;11.90;;;4.65;;
51248;SDS011;39642;47.556;18.728;2022-08-30T15:02:31;10.82;;;4.68;;
51248;SDS011;39642;47.556;18.728;2022-08-30T15:04:57;11.18;;;4.78;;
51248;SDS011;39642;47.556;18.728;2022-08-30T15:07:23;11.35;;;4.20;;
51248;SDS011;39642;47.556;18.728;2022-08-30T15:09:48;10.75;;;4.53;;
51248;SDS011;39642;47.556;18.728;2022-08-30T15:12:14;10.65;;;4.47;;
51248;SDS011;39642;47.556;18.728;2022-08-30T15:14:40;11.07;;;4.40;;
51248;SDS011;39642;47.556;18.728;2022-08-30T15:17:06;11.12;;;4.78;;
51248;SDS011;39642;47.556;18.728;2022-08-30T15:19:32;10.25;;;4.40;;
51248;SDS011;39642;47.556;18.728;2022-08-30T15:21:59;12.30;;;4.55;;
51248;SDS011;39642;47.556;18.728;2022-08-30T15:24:29;12.77;;;4.60;;
51248;SDS011;39642;47.556;18.728;2022-08-30T15:26:56;11.50;;;4.55;;
51248;SDS011;39642;47.556;18.728;2022-08-30T15:29:23;10.50;;;4.40;;
51248;SDS011;39642;47.556;18.728;2022-08-30T15:31:50;10.80;;;4.57;;
51248;SDS011;39642;47.556;18.728;2022-08-30T15:34:17;11.52;;;4.43;;
51248;SDS011;39642;47.556;18.728;2022-08-30T15:36:45;11.55;;;4.65;;
51248;SDS011;39642;47.556;18.728;2022-08-30T15:39:12;13.90;;;6.37;;
51248;SDS011;39642;47.556;18.728;2022-08-30T15:41:38;12.45;;;5.28;;
51248;SDS011;39642;47.556;18.728;2022-08-30T15:44:05;11.12;;;5.45;;
51248;SDS011;39642;47.556;18.728;2022-08-30T15:46:35;12.52;;;6.07;;
51248;SDS011;39642;47.556;18.728;2022-08-30T15:49:05;12.50;;;5.65;;
51248;SDS011;39642;47.556;18.728;2022-08-30T15:51:44;14.80;;;6.20;;
51248;SDS011;39642;47.556;18.728;2022-08-30T15:54:13;12.13;;;5.37;;
51248;SDS011;39642;47.556;18.728;2022-08-30T15:56:41;13.40;;;6.20;;
51248;SDS011;39642;47.556;18.728;2022-08-30T15:59:08;12.52;;;5.00;;
51248;SDS011;39642;47.556;18.728;2022-08-30T16:01:34;13.80;;;5.93;;
51248;SDS011;39642;47.556;18.728;2022-08-30T16:04:00;12.43;;;5.50;;